MSC Koroni — D5CD9 — position and weather

sailwx.info

Track history (hours):
 
Tides and Currents Weather Stations Pressure Air Temp Water Temp Dewpoint Dewpoint Depression Visibility Wind Speed Wind Dir Waves Ship Positions

MSC Koroni

Last reported at 2017-Dec-10 19:27 UTC. Time now 2017-Dec-11 17:03 UTC.
Position N 49°51' W 003°16'.

Length 257 m; draft 11.7 m.

Type: Ship (hazmat cat A). MMSI: 636015674.

Date/timePositionNaut miles runAvg speedWind from/ knotsBaromVisibWave heightAir tempDewpointWater temp
2017-Dec-10 19:27N 49°51' W 003°16'511.1
2017-Dec-10 19:00N 49°54' W 003°09'511.0
2017-Dec-10 18:30N 49°56' W 003°02'510.8
2017-Dec-10 18:00N 49°59' W 002°54'510.6
2017-Dec-10 17:30N 49°60' W 002°46'510.3
2017-Dec-10 17:00N 50°01' W 002°38'5 9.3
2017-Dec-10 16:30N 50°02' W 002°31'712.1
2017-Dec-10 15:57N 50°03' W 002°21'512.3
2017-Dec-10 15:30N 50°04' W 002°13'611.4
2017-Dec-10 15:00N 50°04' W 002°04'510.3
2017-Dec-10 14:31N 50°04' W 001°56'5 9.4
2017-Dec-10 14:00N 50°04' W 001°48'5 9.0
2017-Dec-10 13:30N 50°05' W 001°41'4 7.8
2017-Dec-10 13:00N 50°05' W 001°35'5 7.9
2017-Dec-10 12:24N 50°02' W 001°29'2 4.1
2017-Dec-10 12:00N 50°01' W 001°27'2 3.2
2017-Dec-10 11:30N 50°00' W 001°25'3 4.0
2017-Dec-10 10:52N 49°59' W 001°22'29 6.8
2017-Dec-10 06:32N 49°43' W 000°43'2 9.4
2017-Dec-10 06:21N 49°42' W 000°40'3 9.2
2017-Dec-10 06:00N 49°41' W 000°36'5 9.2
2017-Dec-10 05:30N 49°39' W 000°30'5 9.3
2017-Dec-10 05:01N 49°36' W 000°24'4 9.0
2017-Dec-10 04:31N 49°34' W 000°18'4 7.3
2017-Dec-10 04:00N 49°33' W 000°12'4 8.0
2017-Dec-10 03:31N 49°32' W 000°07'612.4
2017-Dec-10 03:00N 49°30' E 000°02'5 9.6
2017-Dec-10 02:31N 49°27' E 000°09'0 0.9
2017-Dec-10 02:00N 49°28' E 000°08'0 0.0
2017-Dec-10 01:30N 49°28' E 000°08'0 0.0
2017-Dec-10 01:00N 49°28' E 000°08'0 0.0
2017-Dec-10 00:30N 49°28' E 000°08'0 0.0
2017-Dec-10 00:00N 49°28' E 000°08'0 0.0
2017-Dec-09 23:30N 49°28' E 000°08'0 0.0
2017-Dec-09 23:00N 49°28' E 000°08'0 0.0
2017-Dec-09 22:30N 49°28' E 000°08'0 0.0
2017-Dec-09 22:00N 49°28' E 000°08'0 0.0
2017-Dec-09 21:30N 49°28' E 000°08'0 0.0
2017-Dec-09 21:00N 49°28' E 000°08'0 0.0
2017-Dec-09 20:30N 49°28' E 000°08'0 0.0
2017-Dec-09 20:00N 49°28' E 000°08'0 0.0
2017-Dec-09 19:30N 49°28' E 000°08'0 0.0
2017-Dec-09 18:57N 49°28' E 000°08'0 0.0
2017-Dec-09 18:30N 49°28' E 000°08'0 0.0
2017-Dec-09 18:00N 49°28' E 000°08'0 0.0
2017-Dec-09 17:30N 49°28' E 000°08'0 0.0
2017-Dec-09 17:00N 49°28' E 000°08'0 0.0
2017-Dec-09 16:28N 49°28' E 000°08'0 0.0
2017-Dec-09 15:58N 49°28' E 000°08'0 0.0
2017-Dec-09 15:28N 49°28' E 000°08'0 0.0
2017-Dec-09 14:58N 49°28' E 000°08'0 0.0
2017-Dec-09 14:25N 49°28' E 000°08'0 0.0
2017-Dec-09 14:00N 49°28' E 000°08'0 0.0
2017-Dec-09 13:30N 49°28' E 000°08'0 0.0
2017-Dec-09 13:00N 49°28' E 000°08'0 0.0
2017-Dec-09 12:30N 49°28' E 000°08'0 0.0
2017-Dec-09 12:00N 49°28' E 000°08'0 0.0
2017-Dec-09 11:30N 49°28' E 000°08'0 0.0
2017-Dec-09 11:00N 49°28' E 000°08'0 0.0
2017-Dec-09 10:30N 49°28' E 000°08'0 0.0
2017-Dec-09 10:00N 49°28' E 000°08'0 0.0
2017-Dec-09 09:30N 49°28' E 000°08'0 0.0
2017-Dec-09 09:00N 49°28' E 000°08'0 0.0
2017-Dec-09 08:30N 49°28' E 000°08'0 0.0
2017-Dec-09 08:00N 49°28' E 000°08'0 0.0
2017-Dec-09 07:30N 49°28' E 000°08'0 0.0
2017-Dec-09 07:00N 49°28' E 000°08'3 6.6
2017-Dec-09 06:31N 49°29' E 000°04'713.7
2017-Dec-09 06:00N 49°32' W 000°06'611.1
2017-Dec-09 05:31N 49°37' W 000°10'816.8
2017-Dec-09 05:01N 49°45' W 000°10'918.0
2017-Dec-09 04:30N 49°54' W 000°08'917.9
2017-Dec-09 04:00N 50°03' W 000°08'917.9
2017-Dec-09 03:31N 50°12' W 000°08'2115.8
2017-Dec-09 02:12N 50°31' E 000°07'316.7
2017-Dec-09 02:00N 50°32' E 000°12'816.6
2017-Dec-09 01:30N 50°36' E 000°24'816.4
2017-Dec-09 01:01N 50°38' E 000°36'816.7
2017-Dec-09 00:31N 50°42' E 000°47'917.7
2017-Dec-09 00:01N 50°48' E 000°58'1018.8
2017-Dec-08 23:29N 50°54' E 001°10'1020.2
2017-Dec-08 23:00N 51°01' E 001°21'1021.1
2017-Dec-08 22:31N 51°08' E 001°34'1020.3
2017-Dec-08 22:01N 51°14' E 001°46'1019.5
2017-Dec-08 21:30N 51°23' E 001°53'917.5
2017-Dec-08 21:00N 51°32' E 001°52'917.8
2017-Dec-08 20:30N 51°40' E 001°46'917.2
2017-Dec-08 20:01N 51°48' E 001°44'510.0
2017-Dec-08 19:30N 51°51' E 001°37'611.7
2017-Dec-08 19:01N 51°46' E 001°32'816.5
2017-Dec-08 18:30N 51°39' E 001°24'1217.0
2017-Dec-08 17:47N 51°32' E 001°08'616.8
2017-Dec-08 17:26N 51°29' E 000°59'716.2
2017-Dec-08 17:00N 51°29' E 000°48'816.0
2017-Dec-08 16:30N 51°30' E 000°36'4 7.2
2017-Dec-08 16:01N 51°30' E 000°30'0 0.1
2017-Dec-08 15:31N 51°30' E 000°30'0 0.0
2017-Dec-08 15:01N 51°30' E 000°30'0 0.0
2017-Dec-08 14:31N 51°30' E 000°30'0 0.0
2017-Dec-08 14:01N 51°30' E 000°30'0 0.0
2017-Dec-08 13:30N 51°30' E 000°30'0 0.0
2017-Dec-08 13:01N 51°30' E 000°30'0 0.0
2017-Dec-08 12:31N 51°30' E 000°30'0 0.0
2017-Dec-08 12:01N 51°30' E 000°30'0 0.0
2017-Dec-08 11:31N 51°30' E 000°30'0 0.0
2017-Dec-08 11:01N 51°30' E 000°30'0 0.0
2017-Dec-08 10:31N 51°30' E 000°30'0 0.0
2017-Dec-08 10:01N 51°30' E 000°30'0 0.0
2017-Dec-08 09:31N 51°30' E 000°30'0 0.0
2017-Dec-08 09:01N 51°30' E 000°30'0 0.0
2017-Dec-08 08:31N 51°30' E 000°30'0 0.0
2017-Dec-08 08:01N 51°30' E 000°30'0 0.0
2017-Dec-08 07:31N 51°30' E 000°30'0 0.0
2017-Dec-08 07:01N 51°30' E 000°30'0 0.0
2017-Dec-08 06:31N 51°30' E 000°30'0 0.0
2017-Dec-08 06:01N 51°30' E 000°30'0 0.0
2017-Dec-08 05:31N 51°30' E 000°30'0 0.0
2017-Dec-08 05:01N 51°30' E 000°30'0 0.0
2017-Dec-08 04:31N 51°30' E 000°30'2 3.1
2017-Dec-08 04:00N 51°30' E 000°32'713.4
2017-Dec-08 03:30N 51°30' E 000°43'714.6
2017-Dec-08 03:01N 51°29' E 000°55'917.4
2017-Dec-08 02:31N 51°32' E 001°08'917.8
2017-Dec-08 02:01N 51°37' E 001°20'917.9
2017-Dec-08 01:31N 51°44' E 001°29'817.0
2017-Dec-08 01:01N 51°50' E 001°38'4 8.5
2017-Dec-08 00:31N 51°51' E 001°45'612.6
2017-Dec-08 00:00N 51°45' E 001°47'815.0
2017-Dec-07 23:30N 51°38' E 001°50'815.8
2017-Dec-07 23:00N 51°31' E 001°56'815.6
2017-Dec-07 22:31N 51°24' E 002°04'917.4
2017-Dec-07 22:00N 51°21' E 002°16'918.9
2017-Dec-07 21:30N 51°23' E 002°31'915.1
2017-Dec-07 20:53N 51°24' E 002°46'514.0
2017-Dec-07 20:30N 51°25' E 002°55'714.1
2017-Dec-07 20:00N 51°24' E 003°06'917.6
2017-Dec-07 19:30N 51°24' E 003°20'917.8
2017-Dec-07 19:00N 51°25' E 003°34'5 9.5
2017-Dec-07 18:31N 51°26' E 003°42'714.7
2017-Dec-07 18:01N 51°21' E 003°50'713.6
2017-Dec-07 17:30N 51°25' E 003°58'5 9.3
2017-Dec-07 17:00N 51°22' E 004°04'611.5
2017-Dec-07 16:31N 51°24' E 004°13'510.2
2017-Dec-07 16:00N 51°19' E 004°16'2 3.9
2017-Dec-07 15:30N 51°17' E 004°15'0 0.2
2017-Dec-07 15:00N 51°17' E 004°15'0 0.0
2017-Dec-07 14:27N 51°17' E 004°15'0 0.0
2017-Dec-07 13:57N 51°17' E 004°15'0 0.0
2017-Dec-07 13:30N 51°17' E 004°15'0 0.0
2017-Dec-07 13:00N 51°17' E 004°15'0 0.0
2017-Dec-07 12:30N 51°17' E 004°15'0 0.0
2017-Dec-07 12:00N 51°17' E 004°15'0 0.0
2017-Dec-07 11:30N 51°17' E 004°15'0 0.0
2017-Dec-07 11:00N 51°17' E 004°15'0 0.0
2017-Dec-07 10:30N 51°17' E 004°15'0 0.0
2017-Dec-07 10:00N 51°17' E 004°15'0 0.0
2017-Dec-07 09:30N 51°17' E 004°15'0 0.0
2017-Dec-07 09:00N 51°17' E 004°15'0 0.0
2017-Dec-07 08:30N 51°17' E 004°15'0 0.0
2017-Dec-07 08:00N 51°17' E 004°15'0 0.0
2017-Dec-07 07:27N 51°17' E 004°15'0 0.0
2017-Dec-07 07:00N 51°17' E 004°15'0 0.0
2017-Dec-07 06:30N 51°17' E 004°15'0 0.0
2017-Dec-07 05:48N 51°17' E 004°15'0 0.0
2017-Dec-07 05:30N 51°17' E 004°15'0 0.0
2017-Dec-07 05:00N 51°17' E 004°15'0 0.0
2017-Dec-07 04:27N 51°17' E 004°15'0 0.0
2017-Dec-07 04:00N 51°17' E 004°15'0 0.0
2017-Dec-07 03:30N 51°17' E 004°15'0 0.0
2017-Dec-07 03:00N 51°17' E 004°15'0 0.0
2017-Dec-07 02:27N 51°17' E 004°15'0 0.0
2017-Dec-07 02:00N 51°17' E 004°15'0 0.0
2017-Dec-07 01:30N 51°17' E 004°15'0 0.0
2017-Dec-07 01:00N 51°17' E 004°15'0 0.0
2017-Dec-07 00:21N 51°17' E 004°15'0 0.0
2017-Dec-07 00:00N 51°17' E 004°15'0 0.0
2017-Dec-06 23:30N 51°17' E 004°15'0 0.0
2017-Dec-06 22:57N 51°17' E 004°15'0 0.0
2017-Dec-06 22:30N 51°17' E 004°15'0 0.0
2017-Dec-06 22:00N 51°17' E 004°15'0 0.0
2017-Dec-06 21:30N 51°17' E 004°15'0 0.0
2017-Dec-06 21:00N 51°17' E 004°15'  
2017-Dec-01 20:21N 28°49' W 015°08'618.8
2017-Dec-01 20:00N 28°43' W 015°10'919.0
2017-Dec-01 19:30N 28°34' W 015°13'918.9
2017-Dec-01 19:00N 28°25' W 015°16'1018.9
2017-Dec-01 18:30N 28°15' W 015°19'917.4
2017-Dec-01 18:00N 28°07' W 015°23'2 4.4
2017-Dec-01 17:28N 28°08' W 015°25'0 0.0
2017-Dec-01 16:58N 28°08' W 015°25'0 0.0
2017-Dec-01 16:28N 28°08' W 015°25'0 0.0
2017-Dec-01 15:58N 28°08' W 015°25'0 0.0
2017-Dec-01 15:28N 28°08' W 015°25'0 0.0
2017-Dec-01 14:58N 28°08' W 015°25'0 0.0
2017-Dec-01 14:28N 28°08' W 015°25'0 0.0
2017-Dec-01 13:58N 28°08' W 015°25'0 0.0
2017-Dec-01 13:28N 28°08' W 015°25'0 0.0
2017-Dec-01 12:58N 28°08' W 015°25'0 0.0
2017-Dec-01 12:01N 28°08' W 015°25'0 0.0
2017-Dec-01 11:58N 28°08' W 015°25'0 0.0
2017-Dec-01 11:19N 28°08' W 015°25'0 0.0
2017-Dec-01 10:49N 28°08' W 015°25'0 0.0
2017-Dec-01 10:19N 28°08' W 015°25'0 0.0
2017-Dec-01 09:49N 28°08' W 015°25'0 0.0
2017-Dec-01 09:22N 28°08' W 015°25'0 0.0
2017-Dec-01 08:49N 28°08' W 015°25'0 0.0
2017-Dec-01 08:22N 28°08' W 015°25'0 0.0
2017-Dec-01 07:52N 28°08' W 015°25'0 0.0
2017-Dec-01 07:22N 28°08' W 015°25'0 0.0
2017-Dec-01 06:52N 28°08' W 015°25'0 1.0
2017-Dec-01 06:30N 28°07' W 015°25'2 5.0
2017-Dec-01 06:00N 28°07' W 015°22'4 7.6
2017-Dec-01 05:30N 28°05' W 015°19'510.8
2017-Dec-01 05:00N 27°59' W 015°18'612.0
2017-Dec-01 04:30N 27°53' W 015°17'611.2
2017-Dec-01 04:00N 27°48' W 015°20'  
Track history (hours):
 
Tides and Currents Weather Stations Pressure Air Temp Water Temp Dewpoint Dewpoint Depression Visibility Wind Speed Wind Dir Waves Ship Positions

MSC Koroni

Last reported at 2017-Dec-10 19:27 UTC. Time now 2017-Dec-11 17:03 UTC.
Position N 49°51' W 003°16'.

Length 257 m; draft 11.7 m.

Type: Ship (hazmat cat A). MMSI: 636015674.

Date/timePositionNaut miles runAvg speedWind from/ knotsBaromVisibWave heightAir tempDewpointWater temp
2017-Dec-10 19:27N 49°51' W 003°16'511.1
2017-Dec-10 19:00N 49°54' W 003°09'511.0
2017-Dec-10 18:30N 49°56' W 003°02'510.8
2017-Dec-10 18:00N 49°59' W 002°54'510.6
2017-Dec-10 17:30N 49°60' W 002°46'510.3
2017-Dec-10 17:00N 50°01' W 002°38'5 9.3
2017-Dec-10 16:30N 50°02' W 002°31'712.1
2017-Dec-10 15:57N 50°03' W 002°21'512.3
2017-Dec-10 15:30N 50°04' W 002°13'611.4
2017-Dec-10 15:00N 50°04' W 002°04'510.3
2017-Dec-10 14:31N 50°04' W 001°56'5 9.4
2017-Dec-10 14:00N 50°04' W 001°48'5 9.0
2017-Dec-10 13:30N 50°05' W 001°41'4 7.8
2017-Dec-10 13:00N 50°05' W 001°35'5 7.9
2017-Dec-10 12:24N 50°02' W 001°29'2 4.1
2017-Dec-10 12:00N 50°01' W 001°27'2 3.2
2017-Dec-10 11:30N 50°00' W 001°25'3 4.0
2017-Dec-10 10:52N 49°59' W 001°22'29 6.8
2017-Dec-10 06:32N 49°43' W 000°43'2 9.4
2017-Dec-10 06:21N 49°42' W 000°40'3 9.2
2017-Dec-10 06:00N 49°41' W 000°36'5 9.2
2017-Dec-10 05:30N 49°39' W 000°30'5 9.3
2017-Dec-10 05:01N 49°36' W 000°24'4 9.0
2017-Dec-10 04:31N 49°34' W 000°18'4 7.3
2017-Dec-10 04:00N 49°33' W 000°12'4 8.0
2017-Dec-10 03:31N 49°32' W 000°07'612.4
2017-Dec-10 03:00N 49°30' E 000°02'5 9.6
2017-Dec-10 02:31N 49°27' E 000°09'0 0.9
2017-Dec-10 02:00N 49°28' E 000°08'0 0.0
2017-Dec-10 01:30N 49°28' E 000°08'0 0.0
2017-Dec-10 01:00N 49°28' E 000°08'0 0.0
2017-Dec-10 00:30N 49°28' E 000°08'0 0.0
2017-Dec-10 00:00N 49°28' E 000°08'0 0.0
2017-Dec-09 23:30N 49°28' E 000°08'0 0.0
2017-Dec-09 23:00N 49°28' E 000°08'0 0.0
2017-Dec-09 22:30N 49°28' E 000°08'0 0.0
2017-Dec-09 22:00N 49°28' E 000°08'0 0.0
2017-Dec-09 21:30N 49°28' E 000°08'0 0.0
2017-Dec-09 21:00N 49°28' E 000°08'0 0.0
2017-Dec-09 20:30N 49°28' E 000°08'0 0.0
2017-Dec-09 20:00N 49°28' E 000°08'0 0.0
2017-Dec-09 19:30N 49°28' E 000°08'0 0.0
2017-Dec-09 18:57N 49°28' E 000°08'0 0.0
2017-Dec-09 18:30N 49°28' E 000°08'0 0.0
2017-Dec-09 18:00N 49°28' E 000°08'0 0.0
2017-Dec-09 17:30N 49°28' E 000°08'0 0.0
2017-Dec-09 17:00N 49°28' E 000°08'0 0.0
2017-Dec-09 16:28N 49°28' E 000°08'0 0.0
2017-Dec-09 15:58N 49°28' E 000°08'0 0.0
2017-Dec-09 15:28N 49°28' E 000°08'0 0.0
2017-Dec-09 14:58N 49°28' E 000°08'0 0.0
2017-Dec-09 14:25N 49°28' E 000°08'0 0.0
2017-Dec-09 14:00N 49°28' E 000°08'0 0.0
2017-Dec-09 13:30N 49°28' E 000°08'0 0.0
2017-Dec-09 13:00N 49°28' E 000°08'0 0.0
2017-Dec-09 12:30N 49°28' E 000°08'0 0.0
2017-Dec-09 12:00N 49°28' E 000°08'0 0.0
2017-Dec-09 11:30N 49°28' E 000°08'0 0.0
2017-Dec-09 11:00N 49°28' E 000°08'0 0.0
2017-Dec-09 10:30N 49°28' E 000°08'0 0.0
2017-Dec-09 10:00N 49°28' E 000°08'0 0.0
2017-Dec-09 09:30N 49°28' E 000°08'0 0.0
2017-Dec-09 09:00N 49°28' E 000°08'0 0.0
2017-Dec-09 08:30N 49°28' E 000°08'0 0.0
2017-Dec-09 08:00N 49°28' E 000°08'0 0.0
2017-Dec-09 07:30N 49°28' E 000°08'0 0.0
2017-Dec-09 07:00N 49°28' E 000°08'3 6.6
2017-Dec-09 06:31N 49°29' E 000°04'713.7
2017-Dec-09 06:00N 49°32' W 000°06'611.1
2017-Dec-09 05:31N 49°37' W 000°10'816.8
2017-Dec-09 05:01N 49°45' W 000°10'918.0
2017-Dec-09 04:30N 49°54' W 000°08'917.9
2017-Dec-09 04:00N 50°03' W 000°08'917.9
2017-Dec-09 03:31N 50°12' W 000°08'2115.8
2017-Dec-09 02:12N 50°31' E 000°07'316.7
2017-Dec-09 02:00N 50°32' E 000°12'816.6
2017-Dec-09 01:30N 50°36' E 000°24'816.4
2017-Dec-09 01:01N 50°38' E 000°36'816.7
2017-Dec-09 00:31N 50°42' E 000°47'917.7
2017-Dec-09 00:01N 50°48' E 000°58'1018.8
2017-Dec-08 23:29N 50°54' E 001°10'1020.2
2017-Dec-08 23:00N 51°01' E 001°21'1021.1
2017-Dec-08 22:31N 51°08' E 001°34'1020.3
2017-Dec-08 22:01N 51°14' E 001°46'1019.5
2017-Dec-08 21:30N 51°23' E 001°53'917.5
2017-Dec-08 21:00N 51°32' E 001°52'917.8
2017-Dec-08 20:30N 51°40' E 001°46'917.2
2017-Dec-08 20:01N 51°48' E 001°44'510.0
2017-Dec-08 19:30N 51°51' E 001°37'611.7
2017-Dec-08 19:01N 51°46' E 001°32'816.5
2017-Dec-08 18:30N 51°39' E 001°24'1217.0
2017-Dec-08 17:47N 51°32' E 001°08'616.8
2017-Dec-08 17:26N 51°29' E 000°59'716.2
2017-Dec-08 17:00N 51°29' E 000°48'816.0
2017-Dec-08 16:30N 51°30' E 000°36'4 7.2
2017-Dec-08 16:01N 51°30' E 000°30'0 0.1
2017-Dec-08 15:31N 51°30' E 000°30'0 0.0
2017-Dec-08 15:01N 51°30' E 000°30'0 0.0
2017-Dec-08 14:31N 51°30' E 000°30'0 0.0
2017-Dec-08 14:01N 51°30' E 000°30'0 0.0
2017-Dec-08 13:30N 51°30' E 000°30'0 0.0
2017-Dec-08 13:01N 51°30' E 000°30'0 0.0
2017-Dec-08 12:31N 51°30' E 000°30'0 0.0
2017-Dec-08 12:01N 51°30' E 000°30'0 0.0
2017-Dec-08 11:31N 51°30' E 000°30'0 0.0
2017-Dec-08 11:01N 51°30' E 000°30'0 0.0
2017-Dec-08 10:31N 51°30' E 000°30'0 0.0
2017-Dec-08 10:01N 51°30' E 000°30'0 0.0
2017-Dec-08 09:31N 51°30' E 000°30'0 0.0
2017-Dec-08 09:01N 51°30' E 000°30'0 0.0
2017-Dec-08 08:31N 51°30' E 000°30'0 0.0
2017-Dec-08 08:01N 51°30' E 000°30'0 0.0
2017-Dec-08 07:31N 51°30' E 000°30'0 0.0
2017-Dec-08 07:01N 51°30' E 000°30'0 0.0
2017-Dec-08 06:31N 51°30' E 000°30'0 0.0
2017-Dec-08 06:01N 51°30' E 000°30'0 0.0
2017-Dec-08 05:31N 51°30' E 000°30'0 0.0
2017-Dec-08 05:01N 51°30' E 000°30'0 0.0
2017-Dec-08 04:31N 51°30' E 000°30'2 3.1
2017-Dec-08 04:00N 51°30' E 000°32'713.4
2017-Dec-08 03:30N 51°30' E 000°43'714.6
2017-Dec-08 03:01N 51°29' E 000°55'917.4
2017-Dec-08 02:31N 51°32' E 001°08'917.8
2017-Dec-08 02:01N 51°37' E 001°20'917.9
2017-Dec-08 01:31N 51°44' E 001°29'817.0
2017-Dec-08 01:01N 51°50' E 001°38'4 8.5
2017-Dec-08 00:31N 51°51' E 001°45'612.6
2017-Dec-08 00:00N 51°45' E 001°47'815.0
2017-Dec-07 23:30N 51°38' E 001°50'815.8
2017-Dec-07 23:00N 51°31' E 001°56'815.6
2017-Dec-07 22:31N 51°24' E 002°04'917.4
2017-Dec-07 22:00N 51°21' E 002°16'918.9
2017-Dec-07 21:30N 51°23' E 002°31'915.1
2017-Dec-07 20:53N 51°24' E 002°46'514.0
2017-Dec-07 20:30N 51°25' E 002°55'714.1
2017-Dec-07 20:00N 51°24' E 003°06'917.6
2017-Dec-07 19:30N 51°24' E 003°20'917.8
2017-Dec-07 19:00N 51°25' E 003°34'5 9.5
2017-Dec-07 18:31N 51°26' E 003°42'714.7
2017-Dec-07 18:01N 51°21' E 003°50'713.6
2017-Dec-07 17:30N 51°25' E 003°58'5 9.3
2017-Dec-07 17:00N 51°22' E 004°04'611.5
2017-Dec-07 16:31N 51°24' E 004°13'510.2
2017-Dec-07 16:00N 51°19' E 004°16'2 3.9
2017-Dec-07 15:30N 51°17' E 004°15'0 0.2
2017-Dec-07 15:00N 51°17' E 004°15'0 0.0
2017-Dec-07 14:27N 51°17' E 004°15'0 0.0
2017-Dec-07 13:57N 51°17' E 004°15'0 0.0
2017-Dec-07 13:30N 51°17' E 004°15'0 0.0
2017-Dec-07 13:00N 51°17' E 004°15'0 0.0
2017-Dec-07 12:30N 51°17' E 004°15'0 0.0
2017-Dec-07 12:00N 51°17' E 004°15'0 0.0
2017-Dec-07 11:30N 51°17' E 004°15'0 0.0
2017-Dec-07 11:00N 51°17' E 004°15'0 0.0
2017-Dec-07 10:30N 51°17' E 004°15'0 0.0
2017-Dec-07 10:00N 51°17' E 004°15'0 0.0
2017-Dec-07 09:30N 51°17' E 004°15'0 0.0
2017-Dec-07 09:00N 51°17' E 004°15'0 0.0
2017-Dec-07 08:30N 51°17' E 004°15'0 0.0
2017-Dec-07 08:00N 51°17' E 004°15'0 0.0
2017-Dec-07 07:27N 51°17' E 004°15'0 0.0
2017-Dec-07 07:00N 51°17' E 004°15'0 0.0
2017-Dec-07 06:30N 51°17' E 004°15'0 0.0
2017-Dec-07 05:48N 51°17' E 004°15'0 0.0
2017-Dec-07 05:30N 51°17' E 004°15'0 0.0
2017-Dec-07 05:00N 51°17' E 004°15'0 0.0
2017-Dec-07 04:27N 51°17' E 004°15'0 0.0
2017-Dec-07 04:00N 51°17' E 004°15'0 0.0
2017-Dec-07 03:30N 51°17' E 004°15'0 0.0
2017-Dec-07 03:00N 51°17' E 004°15'0 0.0
2017-Dec-07 02:27N 51°17' E 004°15'0 0.0
2017-Dec-07 02:00N 51°17' E 004°15'0 0.0
2017-Dec-07 01:30N 51°17' E 004°15'0 0.0
2017-Dec-07 01:00N 51°17' E 004°15'0 0.0
2017-Dec-07 00:21N 51°17' E 004°15'0 0.0
2017-Dec-07 00:00N 51°17' E 004°15'0 0.0
2017-Dec-06 23:30N 51°17' E 004°15'0 0.0
2017-Dec-06 22:57N 51°17' E 004°15'0 0.0
2017-Dec-06 22:30N 51°17' E 004°15'0 0.0
2017-Dec-06 22:00N 51°17' E 004°15'0 0.0
2017-Dec-06 21:30N 51°17' E 004°15'0 0.0
2017-Dec-06 21:00N 51°17' E 004°15'  
2017-Dec-01 20:21N 28°49' W 015°08'618.8
2017-Dec-01 20:00N 28°43' W 015°10'919.0
2017-Dec-01 19:30N 28°34' W 015°13'918.9
2017-Dec-01 19:00N 28°25' W 015°16'1018.9
2017-Dec-01 18:30N 28°15' W 015°19'917.4
2017-Dec-01 18:00N 28°07' W 015°23'2 4.4
2017-Dec-01 17:28N 28°08' W 015°25'0 0.0
2017-Dec-01 16:58N 28°08' W 015°25'0 0.0
2017-Dec-01 16:28N 28°08' W 015°25'0 0.0
2017-Dec-01 15:58N 28°08' W 015°25'0 0.0
2017-Dec-01 15:28N 28°08' W 015°25'0 0.0
2017-Dec-01 14:58N 28°08' W 015°25'0 0.0
2017-Dec-01 14:28N 28°08' W 015°25'0 0.0
2017-Dec-01 13:58N 28°08' W 015°25'0 0.0
2017-Dec-01 13:28N 28°08' W 015°25'0 0.0
2017-Dec-01 12:58N 28°08' W 015°25'0 0.0
2017-Dec-01 12:01N 28°08' W 015°25'0 0.0
2017-Dec-01 11:58N 28°08' W 015°25'0 0.0
2017-Dec-01 11:19N 28°08' W 015°25'0 0.0
2017-Dec-01 10:49N 28°08' W 015°25'0 0.0
2017-Dec-01 10:19N 28°08' W 015°25'0 0.0
2017-Dec-01 09:49N 28°08' W 015°25'0 0.0
2017-Dec-01 09:22N 28°08' W 015°25'0 0.0
2017-Dec-01 08:49N 28°08' W 015°25'0 0.0
2017-Dec-01 08:22N 28°08' W 015°25'0 0.0
2017-Dec-01 07:52N 28°08' W 015°25'0 0.0
2017-Dec-01 07:22N 28°08' W 015°25'0 0.0
2017-Dec-01 06:52N 28°08' W 015°25'0 1.0
2017-Dec-01 06:30N 28°07' W 015°25'2 5.0
2017-Dec-01 06:00N 28°07' W 015°22'4 7.6
2017-Dec-01 05:30N 28°05' W 015°19'510.8
2017-Dec-01 05:00N 27°59' W 015°18'612.0
2017-Dec-01 04:30N 27°53' W 015°17'611.2
2017-Dec-01 04:00N 27°48' W 015°20'  

Dump ship's entire track history